Time;durP1;ratioP1;P1;durP2;ratioP2;P2;SDS_P1;SDS_P2;PMS_P1;PMS_P2;Temp;Humidity;BMP_temperature;BMP_pressure;BME280_temperature;BME280_humidity;BME280_pressure;Samples;Min_cycle;Max_cycle;Signal;HPM_P1;HPM_P2
2022/11/17 00:01:24;;;;;;;1.37;1.17;;;;;;;13.37;100.00;94398.53;5115616;28;20471;-52
2022/11/17 00:03:54;;;;;;;1.20;1.07;;;;;;;13.65;100.00;94401.75;5115831;28;20414;-52
2022/11/17 00:06:22;;;;;;;0.50;0.50;;;;;;;13.60;100.00;94400.03;5115541;28;20431;-52
2022/11/17 00:08:52;;;;;;;0.60;0.60;;;;;;;13.50;100.00;94412.81;5115936;28;20419;-52
2022/11/17 00:11:21;;;;;;;1.80;1.17;;;;;;;13.19;100.00;94418.19;5115096;27;20439;-52
2022/11/17 00:16:35;;;;;;;0.60;0.60;;;;;;;12.65;100.00;94422.72;5114830;28;20431;-53
2022/11/17 00:21:52;;;;;;;1.13;1.03;;;;;;;12.14;100.00;94416.25;5115543;28;20532;-52
2022/11/17 00:24:22;;;;;;;1.33;0.80;;;;;;;12.57;100.00;94414.72;5115083;28;20434;-53
2022/11/17 00:29:32;;;;;;;2.10;0.90;;;;;;;12.60;100.00;94401.59;5112586;28;20962;-52
2022/11/17 00:34:53;;;;;;;0.70;0.67;;;;;;;13.29;100.00;94420.56;5115164;28;20424;-53
2022/11/17 00:37:22;;;;;;;1.27;0.73;;;;;;;13.38;100.00;94416.09;5114793;28;20509;-53
2022/11/17 00:39:50;;;;;;;0.93;0.93;;;;;;;13.11;100.00;94408.28;5115219;28;20883;-53
2022/11/17 00:42:24;;;;;;;1.23;1.17;;;;;;;13.00;100.00;94409.63;5114445;28;20998;-53
2022/11/17 00:44:52;;;;;;;4.13;1.10;;;;;;;13.17;100.00;94413.19;5114544;28;20440;-54
2022/11/17 00:47:21;;;;;;;7.20;1.13;;;;;;;13.31;100.00;94405.09;5114707;28;20469;-53
2022/11/17 00:49:49;;;;;;;0.60;0.50;;;;;;;13.21;100.00;94387.53;5114608;28;20435;-53
2022/11/17 00:52:19;;;;;;;0.70;0.30;;;;;;;13.18;100.00;94395.34;5114958;28;20420;-53
2022/11/17 00:54:47;;;;;;;1.10;0.87;;;;;;;12.91;100.00;94383.00;5114403;28;20421;-53
2022/11/17 00:57:15;;;;;;;0.63;0.63;;;;;;;13.31;100.00;94397.88;5114852;28;20430;-53
2022/11/17 00:59:43;;;;;;;2.10;2.00;;;;;;;12.97;100.00;94394.28;5114019;28;20435;-53
2022/11/17 01:02:11;;;;;;;2.17;2.07;;;;;;;12.62;100.00;94393.31;5114678;28;20470;-53
2022/11/17 01:04:40;;;;;;;1.60;1.40;;;;;;;12.73;100.00;94392.75;5114857;28;20427;-53
2022/11/17 01:07:08;;;;;;;1.03;0.90;;;;;;;12.55;100.00;94367.16;5112544;28;20914;-53
2022/11/17 01:09:38;;;;;;;0.60;0.60;;;;;;;13.00;100.00;94386.50;5114492;27;20441;-53
2022/11/17 01:12:06;;;;;;;4.77;1.90;;;;;;;13.13;100.00;94385.63;5114277;28;20432;-53
2022/11/17 01:14:35;;;;;;;0.83;0.77;;;;;;;13.23;100.00;94382.66;5114394;28;20437;-53
2022/11/17 01:17:03;;;;;;;0.90;0.90;;;;;;;13.12;100.00;94377.94;5114166;28;20446;-53
2022/11/17 01:19:31;;;;;;;0.40;0.30;;;;;;;13.06;100.00;94371.16;5113852;28;21140;-53
2022/11/17 01:21:59;;;;;;;31.27;1.43;;;;;;;13.23;100.00;94371.28;5114212;28;20435;-53
2022/11/17 01:24:28;;;;;;;1.00;0.80;;;;;;;13.39;100.00;94361.75;5113984;28;20434;-53
2022/11/17 01:26:57;;;;;;;3.90;1.13;;;;;;;13.51;100.00;94355.84;5113720;28;20479;-53
2022/11/17 01:29:26;;;;;;;1.30;1.30;;;;;;;13.40;100.00;94355.34;5113854;28;20801;-53
2022/11/17 01:31:54;;;;;;;2.40;0.50;;;;;;;13.52;100.00;94365.38;5113850;28;20423;-53
2022/11/17 01:34:22;;;;;;;0.60;0.60;;;;;;;13.24;100.00;94378.13;5113825;28;20786;-53
2022/11/17 01:39:36;;;;;;;0.93;0.87;;;;;;;12.94;100.00;94370.94;5113182;28;20435;-53
2022/11/17 01:42:13;;;;;;;1.43;1.33;;;;;;;13.19;100.00;94370.31;5113643;28;20432;-53
2022/11/17 01:44:54;;;;;;;0.77;0.77;;;;;;;13.27;100.00;94354.38;5113606;28;20431;-53
2022/11/17 01:47:27;;;;;;;1.70;1.43;;;;;;;12.98;100.00;94366.59;5113243;28;20435;-53
2022/11/17 01:49:59;;;;;;;1.23;1.03;;;;;;;12.92;100.00;94359.84;5112438;28;20438;-53
2022/11/17 01:52:31;;;;;;;1.17;1.17;;;;;;;12.81;100.00;94359.31;5113146;28;20431;-53
2022/11/17 01:55:01;;;;;;;0.63;0.63;;;;;;;12.75;100.00;94368.50;5113226;27;20431;-53
2022/11/17 01:57:35;;;;;;;1.37;1.03;;;;;;;12.83;100.00;94327.09;5113347;28;20446;-53
2022/11/17 02:00:06;;;;;;;0.87;0.60;;;;;;;12.66;100.00;94357.84;5113322;28;20439;-53
2022/11/17 02:02:35;;;;;;;0.63;0.63;;;;;;;13.21;100.00;94365.44;5113080;28;20479;-53
2022/11/17 02:05:13;;;;;;;0.60;0.50;;;;;;;12.97;100.00;94355.19;5113226;28;20914;-53
2022/11/17 02:07:43;;;;;;;1.90;1.10;;;;;;;12.78;100.00;94362.59;5113323;28;20442;-53
2022/11/17 02:10:11;;;;;;;1.10;1.10;;;;;;;12.96;100.00;94353.59;5113460;28;20450;-53
2022/11/17 02:12:41;;;;;;;0.60;0.50;;;;;;;13.08;100.00;94355.72;5112569;28;20439;-53
2022/11/17 02:15:10;;;;;;;0.73;0.73;;;;;;;13.07;100.00;94338.19;5113004;28;20443;-53
2022/11/17 02:17:41;;;;;;;1.10;0.57;;;;;;;13.13;100.00;94329.75;5112946;28;20442;-53
2022/11/17 02:20:13;;;;;;;7.53;1.33;;;;;;;12.81;100.00;94339.91;5113221;28;20445;-53
2022/11/17 02:23:11;;;;;;;1.60;1.00;;;;;;;12.77;100.00;94329.88;5112376;28;20466;-53
2022/11/17 02:25:57;;;;;;;3.50;0.57;;;;;;;13.18;100.00;94324.28;5113152;28;20435;-53
2022/11/17 02:28:29;;;;;;;1.43;0.80;;;;;;;13.20;100.00;94326.66;5112101;28;20441;-53
2022/11/17 02:31:13;;;;;;;0.57;0.50;;;;;;;13.29;100.00;94317.59;5112824;28;20430;-53
2022/11/17 02:33:54;;;;;;;0.73;0.73;;;;;;;13.31;100.00;94312.72;5112952;28;20449;-53
2022/11/17 02:36:31;;;;;;;0.93;0.93;;;;;;;13.33;100.00;94323.84;5112640;28;20432;-53
2022/11/17 02:39:04;;;;;;;1.53;1.43;;;;;;;12.66;100.00;94323.28;5112594;28;20795;-53
2022/11/17 02:41:43;;;;;;;1.03;0.93;;;;;;;12.35;100.00;94287.16;5112527;28;20814;-53
2022/11/17 02:44:18;;;;;;;0.70;0.70;;;;;;;13.18;100.00;94334.16;5112252;28;20470;-53
2022/11/17 02:46:49;;;;;;;0.50;0.50;;;;;;;13.28;100.00;94331.22;5112290;28;20962;-53
2022/11/17 02:49:21;;;;;;;1.17;1.13;;;;;;;13.33;100.00;94329.16;5112486;28;20428;-53
2022/11/17 02:51:52;;;;;;;0.97;0.83;;;;;;;13.23;100.00;94320.72;5111144;28;20434;-53
2022/11/17 02:54:22;;;;;;;1.77;1.77;;;;;;;12.86;100.00;94323.81;5112448;28;20431;-53
2022/11/17 02:56:50;;;;;;;1.33;1.23;;;;;;;12.34;100.00;94320.94;5112405;28;20420;-53
2022/11/17 02:59:26;;;;;;;2.37;0.97;;;;;;;12.81;100.00;94334.59;5112354;28;20816;-53
2022/11/17 03:02:17;;;;;;;0.53;0.53;;;;;;;12.60;100.00;94334.34;5111990;28;20805;-53
2022/11/17 03:04:57;;;;;;;0.53;0.50;;;;;;;12.35;100.00;94313.72;5111956;28;20489;-53
2022/11/17 03:07:40;;;;;;;1.30;1.20;;;;;;;12.61;100.00;94334.06;5112682;28;20431;-53
2022/11/17 03:10:14;;;;;;;1.03;0.60;;;;;;;13.01;100.00;94318.88;5112133;28;20434;-53
2022/11/17 03:12:50;;;;;;;0.40;0.40;;;;;;;13.17;100.00;94321.94;5112012;28;20426;-53
2022/11/17 03:15:28;;;;;;;1.57;1.47;;;;;;;12.72;100.00;94338.00;5112182;28;20427;-53
2022/11/17 03:18:07;;;;;;;2.20;1.43;;;;;;;12.53;100.00;94342.75;5112195;28;20433;-53
2022/11/17 03:20:42;;;;;;;2.03;0.50;;;;;;;12.39;100.00;94328.00;5111468;28;20430;-53
2022/11/17 03:23:18;;;;;;;1.70;1.57;;;;;;;12.08;100.00;94326.06;5112141;28;20471;-53
2022/11/17 03:25:53;;;;;;;0.77;0.77;;;;;;;12.44;100.00;94326.00;5111872;28;20426;-53
2022/11/17 03:28:27;;;;;;;0.80;0.53;;;;;;;12.61;100.00;94333.25;5112018;28;20481;-53
2022/11/17 03:30:58;;;;;;;4.03;1.33;;;;;;;13.01;100.00;94323.41;5112159;28;20423;-53
2022/11/17 03:33:28;;;;;;;3.60;1.17;;;;;;;12.59;100.00;94322.16;5112349;28;20431;-53
2022/11/17 03:36:02;;;;;;;4.83;2.10;;;;;;;12.25;100.00;94325.38;5111394;28;20427;-53
2022/11/17 03:38:37;;;;;;;2.70;1.00;;;;;;;12.59;100.00;94314.97;5112348;28;20448;-53
2022/11/17 03:41:10;;;;;;;1.83;1.70;;;;;;;12.66;100.00;94314.53;5112220;28;20529;-52
2022/11/17 03:43:40;;;;;;;0.97;0.97;;;;;;;12.40;100.00;94290.47;5111954;28;20470;-53
2022/11/17 03:46:15;;;;;;;1.70;1.60;;;;;;;12.01;100.00;94234.63;5112271;28;20462;-53
2022/11/17 03:48:49;;;;;;;1.07;1.07;;;;;;;12.56;100.00;94299.63;5111727;28;20434;-53
2022/11/17 03:51:20;;;;;;;1.17;0.60;;;;;;;12.90;100.00;94300.88;5111478;28;20422;-53
2022/11/17 03:53:49;;;;;;;2.60;0.97;;;;;;;13.09;100.00;94296.88;5111658;28;20970;-53
2022/11/17 03:56:31;;;;;;;0.70;0.40;;;;;;;13.16;100.00;94291.88;5111895;28;20426;-53
2022/11/17 03:59:03;;;;;;;0.70;0.70;;;;;;;13.17;100.00;94295.34;5111630;28;20446;-53
2022/11/17 04:01:35;;;;;;;1.33;1.23;;;;;;;13.15;100.00;94295.66;5112543;28;20434;-53
2022/11/17 04:04:03;;;;;;;5.70;1.33;;;;;;;13.15;100.00;94292.22;5115249;28;20477;-52
2022/11/17 04:06:32;;;;;;;3.50;1.10;;;;;;;13.15;100.00;94292.22;5115276;27;20438;-53
2022/11/17 04:09:00;;;;;;;0.60;0.50;;;;;;;13.18;100.00;94294.25;5115437;28;20915;-53
2022/11/17 04:17:01;;;;;;;0.90;0.90;;;;;;;12.94;100.00;94280.53;5114694;28;20431;-53
2022/11/17 04:19:29;;;;;;;1.40;1.23;;;;;;;12.70;100.00;94273.72;5115287;28;20431;-53
2022/11/17 04:21:57;;;;;;;0.90;0.90;;;;;;;12.99;100.00;94277.72;5115063;28;20435;-53
2022/11/17 04:24:25;;;;;;;1.27;1.17;;;;;;;12.82;100.00;94267.84;5115087;28;20474;-53
2022/11/17 04:29:39;;;;;;;3.90;0.80;;;;;;;12.72;100.00;94260.91;5115339;28;20461;-53
2022/11/17 04:32:09;;;;;;;0.63;0.63;;;;;;;12.94;100.00;94257.38;5115189;28;20449;-53
2022/11/17 04:34:40;;;;;;;1.90;1.50;;;;;;;12.91;100.00;94254.53;5114888;28;20427;-53
2022/11/17 04:37:16;;;;;;;0.67;0.67;;;;;;;13.08;100.00;94249.31;5115106;28;20438;-53
2022/11/17 04:39:44;;;;;;;0.60;0.60;;;;;;;13.03;100.00;94254.75;5114532;28;20470;-53
2022/11/17 04:42:12;;;;;;;0.60;0.60;;;;;;;13.07;100.00;94258.38;5114825;28;20438;-53
2022/11/17 04:44:40;;;;;;;1.20;1.20;;;;;;;13.03;100.00;94236.91;5114651;28;20474;-53
2022/11/17 04:47:10;;;;;;;2.07;1.20;;;;;;;12.72;100.00;94222.91;5114942;28;20428;-53
2022/11/17 04:49:38;;;;;;;1.57;1.07;;;;;;;13.02;100.00;94255.84;5114382;28;20430;-53
2022/11/17 04:52:06;;;;;;;2.53;1.23;;;;;;;12.88;100.00;94237.34;5114130;28;20433;-53
2022/11/17 04:54:35;;;;;;;1.93;1.83;;;;;;;12.79;100.00;94252.50;5114807;28;20442;-53
2022/11/17 04:57:03;;;;;;;2.03;1.30;;;;;;;12.00;100.00;94241.81;5114849;28;20430;-53
2022/11/17 04:59:31;;;;;;;2.60;1.43;;;;;;;11.86;100.00;94245.63;5114697;28;20438;-53
2022/11/17 05:02:00;;;;;;;3.87;1.80;;;;;;;11.83;100.00;94246.25;5114436;28;20784;-53
2022/11/17 05:07:20;;;;;;;2.00;1.90;;;;;;;12.27;100.00;94254.13;5114287;28;20444;-53
2022/11/17 05:09:48;;;;;;;1.20;1.10;;;;;;;12.77;100.00;94253.91;5114254;28;20430;-53
2022/11/17 05:15:02;;;;;;;2.20;0.73;;;;;;;12.65;100.00;94259.78;5113338;28;20445;-53
2022/11/17 05:17:29;;;;;;;1.13;1.13;;;;;;;12.54;100.00;94248.66;5114341;28;20453;-52
2022/11/17 05:20:00;;;;;;;1.90;1.80;;;;;;;12.34;100.00;94248.41;5113914;28;20931;-53
2022/11/17 05:25:13;;;;;;;12.93;8.90;;;;;;;11.79;100.00;94250.59;5114081;27;21004;-53
2022/11/17 05:27:42;;;;;;;3.23;3.03;;;;;;;12.19;100.00;94254.91;5113188;28;20473;-53
2022/11/17 05:30:11;;;;;;;4.53;3.70;;;;;;;12.51;100.00;94257.25;5114021;27;20422;-53
2022/11/17 05:32:40;;;;;;;5.83;2.73;;;;;;;12.39;100.00;94258.91;5113604;28;20445;-52
2022/11/17 05:35:10;;;;;;;1.70;1.60;;;;;;;12.51;100.00;94259.91;5113689;27;20435;-52
2022/11/17 05:37:38;;;;;;;1.50;1.40;;;;;;;12.41;100.00;94270.78;5113783;28;20435;-54
2022/11/17 05:40:08;;;;;;;3.50;2.93;;;;;;;12.55;100.00;94271.47;5113704;28;20438;-52
2022/11/17 05:42:36;;;;;;;2.23;2.13;;;;;;;12.37;100.00;94261.09;5113693;27;20424;-53
2022/11/17 05:45:05;;;;;;;2.67;1.83;;;;;;;12.52;100.00;94248.16;5113242;28;20481;-52
2022/11/17 05:47:33;;;;;;;9.20;2.60;;;;;;;12.57;100.00;94249.91;5113450;28;20915;-52
2022/11/17 05:50:01;;;;;;;1.30;1.20;;;;;;;12.57;100.00;94253.34;5113013;28;20433;-53
2022/11/17 05:52:31;;;;;;;1.93;1.60;;;;;;;12.59;100.00;94253.84;5113236;28;20419;-53
2022/11/17 05:54:59;;;;;;;2.40;1.97;;;;;;;12.65;100.00;94255.25;5112765;28;20933;-53
2022/11/17 05:57:31;;;;;;;0.50;0.50;;;;;;;12.77;100.00;94259.22;5113152;28;20821;-53
2022/11/17 06:00:03;;;;;;;2.33;2.13;;;;;;;12.71;100.00;94246.06;5112890;28;20444;-53
2022/11/17 06:02:36;;;;;;;0.90;0.90;;;;;;;12.78;100.00;94245.59;5112749;28;20441;-53
2022/11/17 06:05:05;;;;;;;1.77;1.63;;;;;;;12.78;100.00;94256.22;5112807;28;20506;-53
2022/11/17 06:07:36;;;;;;;1.70;1.53;;;;;;;12.86;100.00;94254.69;5113043;28;20444;-50
2022/11/17 06:10:06;;;;;;;2.73;1.47;;;;;;;12.91;100.00;94259.88;5113156;28;20774;-53
2022/11/17 06:12:34;;;;;;;6.37;1.20;;;;;;;13.00;100.00;94256.16;5112800;28;20457;-53
2022/11/17 06:15:03;;;;;;;1.73;1.63;;;;;;;12.97;100.00;94261.31;5112727;28;20432;-54
2022/11/17 06:17:35;;;;;;;1.90;1.80;;;;;;;13.09;100.00;94267.63;5112561;28;20500;-56
2022/11/17 06:20:09;;;;;;;0.73;0.73;;;;;;;12.91;100.00;94239.38;5112152;28;20442;-53
2022/11/17 06:22:39;;;;;;;3.87;3.03;;;;;;;12.51;100.00;94265.22;5112570;28;20431;-53
2022/11/17 06:25:16;;;;;;;1.10;1.10;;;;;;;12.70;100.00;94259.63;5111652;28;20465;-53
2022/11/17 06:27:45;;;;;;;1.10;1.10;;;;;;;12.73;100.00;94254.50;5111942;28;20951;-53
2022/11/17 06:30:13;;;;;;;1.20;1.20;;;;;;;12.50;100.00;94260.97;5112976;28;20507;-53
2022/11/17 06:32:43;;;;;;;2.30;2.20;;;;;;;12.41;100.00;94262.81;5112840;28;20441;-54
2022/11/17 06:35:15;;;;;;;2.03;1.93;;;;;;;12.67;100.00;94270.91;5112568;28;20902;-54
2022/11/17 06:37:45;;;;;;;2.77;2.67;;;;;;;12.94;100.00;94270.69;5112416;28;20931;-53
2022/11/17 06:40:13;;;;;;;1.50;1.43;;;;;;;13.02;100.00;94274.47;5112451;28;20914;-54
2022/11/17 06:45:26;;;;;;;7.20;3.37;;;;;;;12.73;100.00;94278.44;5111737;28;21048;-54
2022/11/17 06:47:55;;;;;;;7.70;2.77;;;;;;;12.91;100.00;94283.81;5112618;28;20434;-54
2022/11/17 06:50:23;;;;;;;2.80;2.60;;;;;;;12.64;100.00;94279.50;5112076;28;20423;-53
2022/11/17 06:52:56;;;;;;;6.70;3.50;;;;;;;12.46;100.00;94283.94;5112356;28;20441;-54
2022/11/17 06:55:25;;;;;;;2.90;2.13;;;;;;;12.28;100.00;94278.84;5111598;28;20439;-54
2022/11/17 06:57:59;;;;;;;2.37;2.20;;;;;;;12.54;100.00;94285.06;5112540;28;20521;-54
2022/11/17 07:00:27;;;;;;;1.70;1.60;;;;;;;12.87;100.00;94280.19;5112166;27;20419;-54
2022/11/17 07:03:00;;;;;;;4.40;1.60;;;;;;;13.13;100.00;94270.47;5112163;28;20435;-54
2022/11/17 07:05:28;;;;;;;1.83;1.73;;;;;;;13.15;100.00;94258.41;5112352;28;20919;-54
2022/11/17 07:07:59;;;;;;;2.13;2.00;;;;;;;12.84;100.00;94254.22;5111918;28;20939;-55
2022/11/17 07:10:29;;;;;;;1.20;1.00;;;;;;;12.87;100.00;94257.06;5111625;28;21098;-54
2022/11/17 07:12:57;;;;;;;2.13;1.93;;;;;;;12.70;100.00;94254.31;5111799;28;20468;-54
2022/11/17 07:15:26;;;;;;;9.30;1.67;;;;;;;12.52;100.00;94242.84;5112338;28;20777;-54
2022/11/17 07:17:54;;;;;;;1.83;1.73;;;;;;;12.15;100.00;94247.81;5111783;28;20436;-55
2022/11/17 07:20:23;;;;;;;1.43;1.43;;;;;;;12.01;100.00;94229.34;5111468;28;20466;-54
2022/11/17 07:22:51;;;;;;;3.37;3.27;;;;;;;12.17;100.00;94238.47;5111998;28;20438;-53
2022/11/17 07:25:21;;;;;;;2.63;1.47;;;;;;;12.51;100.00;94235.97;5111751;28;20569;-53
2022/11/17 07:27:56;;;;;;;1.20;1.10;;;;;;;12.72;100.00;94242.28;5111723;28;20478;-54
2022/11/17 07:30:25;;;;;;;7.00;2.13;;;;;;;12.82;100.00;94241.25;5111674;28;20448;-54
2022/11/17 07:32:53;;;;;;;1.10;1.10;;;;;;;12.99;100.00;94235.19;5111891;28;20434;-54
2022/11/17 07:35:22;;;;;;;2.47;2.20;;;;;;;12.55;100.00;94233.47;5111487;28;21009;-54
2022/11/17 07:37:50;;;;;;;1.73;1.10;;;;;;;12.73;100.00;94217.28;5114320;28;20476;-54
2022/11/17 07:40:18;;;;;;;1.57;1.47;;;;;;;12.87;100.00;94206.53;5115254;28;20473;-53
2022/11/17 07:42:49;;;;;;;7.83;1.37;;;;;;;12.59;100.00;94226.47;5115852;28;20521;-53
2022/11/17 07:45:18;;;;;;;1.73;1.40;;;;;;;12.85;100.00;94207.94;5115005;28;21105;-52
2022/11/17 07:47:52;;;;;;;0.70;0.63;;;;;;;12.64;100.00;94226.31;5115532;28;20505;-53
2022/11/17 07:50:21;;;;;;;1.00;1.00;;;;;;;11.88;100.00;94068.25;5115910;28;20515;-52
2022/11/17 07:52:50;;;;;;;0.67;0.67;;;;;;;12.15;100.00;94115.81;5115598;28;20943;-53
2022/11/17 07:55:18;;;;;;;1.03;1.03;;;;;;;12.89;100.00;94230.94;5115371;28;20512;-51
2022/11/17 07:57:47;;;;;;;2.00;1.90;;;;;;;12.93;100.00;94228.44;5115400;28;20421;-52
2022/11/17 08:00:17;;;;;;;1.87;1.77;;;;;;;13.08;100.00;94236.03;5115504;27;20429;-52
2022/11/17 08:02:46;;;;;;;1.27;0.70;;;;;;;13.20;100.00;94233.53;5115546;28;20527;-52
2022/11/17 08:05:16;;;;;;;1.07;1.07;;;;;;;13.23;100.00;94240.91;5115736;28;20886;-52
2022/11/17 08:07:44;;;;;;;1.67;0.90;;;;;;;12.87;100.00;94197.78;5115404;28;20563;-52
2022/11/17 08:10:13;;;;;;;1.30;1.30;;;;;;;12.73;100.00;94243.88;5115145;28;20525;-52
2022/11/17 08:12:41;;;;;;;2.33;2.23;;;;;;;12.96;100.00;94239.25;5115214;28;20521;-52
2022/11/17 08:15:10;;;;;;;1.90;1.80;;;;;;;13.20;100.00;94230.88;5115280;28;20456;-52
2022/11/17 08:17:39;;;;;;;4.10;1.20;;;;;;;12.71;100.00;94250.59;5115154;28;20442;-53
2022/11/17 08:20:11;;;;;;;1.60;1.33;;;;;;;12.58;100.00;94246.94;5115048;28;20467;-51
2022/11/17 08:22:39;;;;;;;0.97;0.70;;;;;;;12.96;100.00;94238.44;5114849;28;20427;-52
2022/11/17 08:25:08;;;;;;;2.00;0.80;;;;;;;13.00;100.00;94250.06;5114556;27;20521;-57
2022/11/17 08:27:37;;;;;;;0.60;0.57;;;;;;;13.09;100.00;94243.69;5114610;28;20595;-56
2022/11/17 08:30:08;;;;;;;0.70;0.67;;;;;;;13.11;100.00;94246.03;5115056;28;20433;-55
2022/11/17 08:32:36;;;;;;;0.87;0.87;;;;;;;12.57;100.00;94099.19;5115076;28;20485;-51
2022/11/17 08:35:06;;;;;;;0.40;0.30;;;;;;;13.30;100.00;94241.22;5114319;28;20443;-51
2022/11/17 08:37:35;;;;;;;0.80;0.73;;;;;;;13.26;100.00;94238.38;5114932;28;20944;-52
2022/11/17 08:40:03;;;;;;;8.07;1.43;;;;;;;13.49;100.00;94235.56;5114744;28;20444;-52
2022/11/17 08:42:31;;;;;;;1.70;1.60;;;;;;;13.47;100.00;94235.88;5114983;28;20515;-53
2022/11/17 08:45:00;;;;;;;1.60;1.50;;;;;;;13.59;100.00;94238.72;5115003;28;20786;-53
2022/11/17 08:47:28;;;;;;;0.67;0.67;;;;;;;13.63;100.00;94233.56;5114398;28;21025;-53
2022/11/17 08:49:56;;;;;;;0.90;0.87;;;;;;;13.48;100.00;94229.47;5113937;28;20445;-53
2022/11/17 08:52:27;;;;;;;1.60;1.50;;;;;;;12.98;100.00;94217.66;5114560;28;20431;-53
2022/11/17 08:54:55;;;;;;;2.87;1.67;;;;;;;12.70;100.00;94201.94;5114795;28;20795;-53
2022/11/17 08:57:24;;;;;;;2.10;2.00;;;;;;;13.29;100.00;94224.47;5114278;28;20431;-53
2022/11/17 08:59:52;;;;;;;4.30;2.37;;;;;;;13.58;100.00;94226.50;5114110;28;20469;-53
2022/11/17 09:02:21;;;;;;;0.53;0.53;;;;;;;13.63;100.00;94223.69;5113501;28;20526;-53
2022/11/17 09:04:49;;;;;;;0.97;0.97;;;;;;;13.52;100.00;94230.41;5114178;28;20523;-53
2022/11/17 09:07:17;;;;;;;2.23;1.93;;;;;;;13.43;100.00;94234.97;5113977;27;20569;-53
2022/11/17 09:09:47;;;;;;;1.90;1.80;;;;;;;13.41;100.00;94231.81;5113194;27;20427;-53
2022/11/17 09:12:16;;;;;;;1.63;1.30;;;;;;;13.40;100.00;94216.94;5113570;28;20439;-53
2022/11/17 09:14:44;;;;;;;2.73;1.00;;;;;;;13.80;100.00;94239.66;5113826;28;20923;-53
2022/11/17 09:17:13;;;;;;;3.90;1.17;;;;;;;13.71;100.00;94233.53;5113533;28;20495;-53
2022/11/17 09:19:41;;;;;;;1.10;1.00;;;;;;;13.67;100.00;94235.25;5113505;28;20462;-53
2022/11/17 09:22:09;;;;;;;1.97;1.90;;;;;;;13.38;100.00;94224.47;5114080;28;20916;-53
2022/11/17 09:24:38;;;;;;;1.17;1.17;;;;;;;13.27;100.00;94231.19;5114083;28;20493;-53
2022/11/17 09:27:07;;;;;;;3.37;2.03;;;;;;;13.46;100.00;94234.31;5113385;28;20487;-53
2022/11/17 09:29:36;;;;;;;1.20;0.83;;;;;;;13.22;100.00;94226.00;5113096;27;20476;-53
2022/11/17 09:32:04;;;;;;;5.07;1.23;;;;;;;12.99;100.00;94142.88;5113710;28;20524;-53
2022/11/17 09:34:33;;;;;;;1.07;1.07;;;;;;;13.52;100.00;94217.09;5112962;27;20915;-52
2022/11/17 09:37:01;;;;;;;0.83;0.83;;;;;;;13.79;100.00;94219.44;5113540;28;20812;-53
2022/11/17 09:39:29;;;;;;;0.93;0.93;;;;;;;13.61;100.00;94204.56;5112901;28;20924;-53
2022/11/17 09:41:58;;;;;;;6.00;2.17;;;;;;;13.35;100.00;94187.84;5112343;28;20438;-53
2022/11/17 09:44:38;;;;;;;2.23;2.13;;;;;;;13.12;100.00;94191.72;5112492;28;20430;-53
2022/11/17 09:47:16;;;;;;;3.20;2.47;;;;;;;13.21;100.00;94211.13;5113626;28;20800;-53
2022/11/17 09:49:56;;;;;;;16.70;3.03;;;;;;;13.26;100.00;94200.34;5113704;28;20427;-53
2022/11/17 09:52:33;;;;;;;3.63;3.33;;;;;;;12.69;100.00;94152.53;5113116;28;20526;-53
2022/11/17 09:55:04;;;;;;;4.70;1.97;;;;;;;13.32;100.00;94205.22;5113326;28;20435;-53
2022/11/17 09:57:40;;;;;;;2.53;2.43;;;;;;;13.19;100.00;94219.44;5113201;28;20433;-53
2022/11/17 10:00:16;;;;;;;3.23;2.03;;;;;;;13.54;100.00;94198.94;5112770;28;20427;-53
2022/11/17 10:02:45;;;;;;;3.03;1.60;;;;;;;13.43;100.00;94202.22;5113070;27;20462;-53
2022/11/17 10:05:16;;;;;;;0.90;0.90;;;;;;;13.58;100.00;94210.53;5113007;28;20434;-53
2022/11/17 10:07:48;;;;;;;1.40;1.30;;;;;;;13.44;100.00;94207.22;5112588;28;20456;-53
2022/11/17 10:10:21;;;;;;;13.13;1.70;;;;;;;13.22;100.00;94188.75;5112907;28;20435;-53
2022/11/17 10:12:57;;;;;;;1.67;1.00;;;;;;;13.50;100.00;94192.69;5113174;28;20454;-55
2022/11/17 10:15:30;;;;;;;3.90;1.63;;;;;;;13.44;100.00;94201.91;5111932;28;20438;-53
2022/11/17 10:17:59;;;;;;;2.83;1.50;;;;;;;13.59;100.00;94205.97;5112547;28;20466;-53
2022/11/17 10:20:27;;;;;;;0.57;0.57;;;;;;;13.67;100.00;94200.66;5112634;27;20507;-53
2022/11/17 10:22:56;;;;;;;2.63;1.37;;;;;;;13.90;100.00;94202.03;5113027;27;20541;-53
2022/11/17 10:25:40;;;;;;;3.27;1.03;;;;;;;14.29;100.00;94197.53;5112983;28;20904;-53
2022/11/17 10:28:23;;;;;;;1.27;0.83;;;;;;;14.11;100.00;94106.22;5110821;28;20480;-53
2022/11/17 10:30:59;;;;;;;0.80;0.80;;;;;;;14.91;100.00;94195.84;5111324;28;20481;-54
2022/11/17 10:33:36;;;;;;;2.77;2.20;;;;;;;14.66;100.00;94188.78;5112412;28;20432;-54
2022/11/17 10:36:13;;;;;;;2.77;2.57;;;;;;;14.24;100.00;94197.72;5112326;28;20442;-54
2022/11/17 10:38:45;;;;;;;1.60;1.30;;;;;;;14.73;100.00;94185.59;5112672;28;20457;-54
2022/11/17 10:41:17;;;;;;;8.07;2.97;;;;;;;14.70;100.00;94186.25;5112616;28;20432;-54
2022/11/17 10:43:56;;;;;;;3.17;3.07;;;;;;;15.28;100.00;94200.31;5112757;28;20425;-54
2022/11/17 10:46:26;;;;;;;3.83;1.80;;;;;;;15.44;100.00;94189.84;5112338;28;20465;-54
2022/11/17 10:49:24;;;;;;;2.00;1.03;;;;;;;15.70;100.00;94195.00;5112374;28;20483;-54
2022/11/17 10:52:05;;;;;;;3.80;3.60;;;;;;;15.71;100.00;94189.31;5112333;28;20534;-54
2022/11/17 10:54:33;;;;;;;0.70;0.70;;;;;;;16.20;100.00;94184.91;5112268;28;20527;-55
2022/11/17 10:57:05;;;;;;;1.13;1.03;;;;;;;16.32;100.00;94182.25;5112462;28;20935;-55
2022/11/17 10:59:43;;;;;;;1.83;1.73;;;;;;;16.23;100.00;94178.13;5112297;28;20942;-55
2022/11/17 11:02:29;;;;;;;0.90;0.70;;;;;;;15.86;100.00;94170.00;5112280;28;21079;-56
2022/11/17 11:05:08;;;;;;;3.33;2.13;;;;;;;16.45;100.00;94180.38;5112413;28;20435;-56
2022/11/17 11:07:37;;;;;;;1.30;1.30;;;;;;;16.74;100.00;94176.75;5112328;28;20469;-56
2022/11/17 11:10:14;;;;;;;0.67;0.67;;;;;;;16.95;100.00;94178.16;5111979;28;20510;-56
2022/11/17 11:12:51;;;;;;;1.47;1.37;;;;;;;16.50;100.00;94174.81;5114685;28;20466;-57
2022/11/17 11:15:22;;;;;;;0.43;0.40;;;;;;;16.78;100.00;94177.63;5116647;28;20429;-56
2022/11/17 11:17:52;;;;;;;1.10;1.00;;;;;;;16.08;100.00;94152.81;5116341;28;20517;-57
2022/11/17 11:20:26;;;;;;;0.50;0.43;;;;;;;16.79;100.00;94179.97;5116581;28;20850;-57
2022/11/17 11:22:59;;;;;;;0.80;0.80;;;;;;;16.71;100.00;94172.06;5116502;28;20509;-57
2022/11/17 11:25:36;;;;;;;1.83;0.50;;;;;;;16.80;100.00;94181.53;5116075;28;20854;-56
2022/11/17 11:28:18;;;;;;;3.57;2.03;;;;;;;16.55;100.00;94174.59;5115554;28;20868;-57
2022/11/17 11:30:57;;;;;;;3.17;0.70;;;;;;;16.27;100.00;94161.06;5115709;28;20518;-57
2022/11/17 11:33:34;;;;;;;1.00;0.70;;;;;;;16.57;100.00;94160.91;5115976;28;20446;-57
2022/11/17 11:36:19;;;;;;;1.10;1.10;;;;;;;16.60;100.00;94158.34;5115916;28;20795;-57
2022/11/17 11:38:57;;;;;;;0.80;0.80;;;;;;;16.01;100.00;94157.13;5115214;28;20438;-57
2022/11/17 11:42:04;;;;;;;2.20;1.83;;;;;;;16.72;100.00;94162.94;5115561;28;20526;-57
2022/11/17 11:44:49;;;;;;;11.53;0.83;;;;;;;16.70;100.00;94146.41;5085900;28;20442;-57
2022/11/17 11:47:33;;;;;;;1.67;1.57;;;;;;;16.14;100.00;94154.13;5115617;28;20479;-57
2022/11/17 11:50:10;;;;;;;2.50;0.97;;;;;;;16.16;100.00;94151.94;5115661;28;21001;-56
2022/11/17 11:52:43;;;;;;;0.93;0.93;;;;;;;16.67;100.00;94150.53;5115605;28;20437;-56
2022/11/17 11:55:18;;;;;;;2.43;0.73;;;;;;;16.39;100.00;94155.72;5115187;28;20468;-55
2022/11/17 11:57:50;;;;;;;1.00;1.00;;;;;;;16.35;100.00;94116.63;5115411;28;20938;-55
2022/11/17 12:00:19;;;;;;;1.37;1.03;;;;;;;16.44;100.00;94163.53;5115445;28;20431;-55
2022/11/17 12:02:53;;;;;;;3.10;0.87;;;;;;;16.06;100.00;94171.06;5114478;28;20486;-56
2022/11/17 12:05:29;;;;;;;0.80;0.80;;;;;;;16.35;100.00;94173.56;5115120;28;20838;-55
2022/11/17 12:08:05;;;;;;;4.60;1.43;;;;;;;16.16;100.00;94159.19;5114709;28;20863;-56
2022/11/17 12:10:45;;;;;;;4.50;1.40;;;;;;;15.71;100.00;94154.59;5115422;27;20434;-56
2022/11/17 12:13:15;;;;;;;0.50;0.50;;;;;;;15.39;100.00;94085.13;5114981;28;20441;-56
2022/11/17 12:15:44;;;;;;;0.70;0.70;;;;;;;15.78;100.00;94148.72;5114993;28;20438;-56
2022/11/17 12:18:29;;;;;;;0.70;0.70;;;;;;;16.12;100.00;94152.91;5115326;28;20442;-55